createdAt,value
2018-10-07T00:02:26.331Z,16.50
2018-10-07T00:04:55.120Z,16.50
2018-10-07T00:07:23.964Z,16.40
2018-10-07T00:09:52.759Z,16.40
2018-10-07T00:12:21.517Z,16.40
2018-10-07T00:14:50.300Z,16.40
2018-10-07T00:17:19.075Z,16.40
2018-10-07T00:19:47.872Z,16.40
2018-10-07T00:22:16.679Z,16.40
2018-10-07T00:24:45.483Z,16.40
2018-10-07T00:27:14.312Z,16.40
2018-10-07T00:29:43.094Z,16.40
2018-10-07T00:32:13.864Z,16.40
2018-10-07T00:34:43.784Z,16.40
2018-10-07T00:37:12.601Z,16.40
2018-10-07T00:39:41.381Z,16.40
2018-10-07T00:42:10.228Z,16.40
2018-10-07T00:44:39.001Z,16.40
2018-10-07T00:47:07.885Z,16.40
2018-10-07T00:49:36.711Z,16.40
2018-10-07T00:52:05.537Z,16.40
2018-10-07T00:54:34.323Z,16.30
2018-10-07T00:57:03.136Z,16.30
2018-10-07T00:59:32.052Z,16.30
2018-10-07T01:02:00.856Z,16.30
2018-10-07T01:04:29.616Z,16.30
2018-10-07T01:06:58.363Z,16.30
2018-10-07T01:09:27.132Z,16.30
2018-10-07T01:11:55.920Z,16.20
2018-10-07T01:14:24.708Z,16.20
2018-10-07T01:16:53.508Z,16.10
2018-10-07T01:19:22.319Z,16.00
2018-10-07T01:21:51.179Z,15.90
2018-10-07T01:24:20.287Z,16.00
2018-10-07T01:26:49.066Z,16.00
2018-10-07T01:29:17.848Z,16.00
2018-10-07T01:31:46.599Z,16.00
2018-10-07T01:34:15.348Z,16.00
2018-10-07T01:36:44.137Z,16.00
2018-10-07T01:39:12.927Z,16.00
2018-10-07T01:41:41.730Z,16.00
2018-10-07T01:44:10.487Z,16.00
2018-10-07T01:46:39.275Z,16.00
2018-10-07T01:49:08.143Z,16.00
2018-10-07T01:51:36.937Z,16.00
2018-10-07T01:54:05.734Z,16.10
2018-10-07T01:56:34.524Z,16.10
2018-10-07T01:59:03.326Z,16.10
2018-10-07T02:01:32.112Z,16.10
2018-10-07T02:04:00.962Z,16.10
2018-10-07T02:06:29.784Z,16.10
2018-10-07T02:08:58.584Z,16.00
2018-10-07T02:11:27.408Z,16.00
2018-10-07T02:13:56.278Z,15.90
2018-10-07T02:16:25.076Z,16.00
2018-10-07T02:18:53.885Z,16.00
2018-10-07T02:21:22.685Z,16.00
2018-10-07T02:23:51.474Z,16.00
2018-10-07T02:26:20.319Z,16.00
2018-10-07T02:28:49.121Z,16.10
2018-10-07T02:31:17.907Z,16.10
2018-10-07T02:33:46.719Z,16.10
2018-10-07T02:36:15.524Z,16.10
2018-10-07T02:38:44.367Z,16.10
2018-10-07T02:41:13.149Z,16.10
2018-10-07T02:43:41.907Z,16.10
2018-10-07T02:46:10.859Z,16.10
2018-10-07T02:48:39.664Z,16.10
2018-10-07T02:51:08.548Z,16.10
2018-10-07T02:53:37.481Z,16.10
2018-10-07T02:56:06.649Z,16.10
2018-10-07T02:58:35.540Z,16.10
2018-10-07T03:01:04.472Z,16.10
2018-10-07T03:03:33.303Z,16.10
2018-10-07T03:06:02.089Z,16.00
2018-10-07T03:08:30.892Z,16.00
2018-10-07T03:10:59.705Z,16.00
2018-10-07T03:13:28.527Z,16.00
2018-10-07T03:15:57.359Z,16.00
2018-10-07T03:18:26.109Z,16.00
2018-10-07T03:20:54.928Z,16.00
2018-10-07T03:23:23.725Z,16.00
2018-10-07T03:25:52.603Z,15.90
2018-10-07T03:28:21.442Z,15.90
2018-10-07T03:30:50.239Z,15.90
2018-10-07T03:33:19.027Z,15.90
2018-10-07T03:35:47.796Z,15.70
2018-10-07T03:38:16.560Z,15.70
2018-10-07T03:40:45.351Z,15.70
2018-10-07T03:43:14.137Z,15.80
2018-10-07T03:45:42.919Z,15.80
2018-10-07T03:48:11.833Z,15.90
2018-10-07T03:50:40.633Z,15.90
2018-10-07T03:53:09.419Z,15.90
2018-10-07T03:55:38.255Z,15.90
2018-10-07T03:58:07.061Z,16.00
2018-10-07T04:00:35.947Z,16.00
2018-10-07T04:03:04.831Z,15.90
2018-10-07T04:05:33.670Z,16.00
2018-10-07T04:08:02.436Z,15.90
2018-10-07T04:10:31.187Z,15.90
2018-10-07T04:12:59.961Z,15.90
2018-10-07T04:15:28.895Z,15.90
2018-10-07T04:17:57.704Z,15.90
2018-10-07T04:20:26.518Z,15.90
2018-10-07T04:22:55.364Z,15.90
2018-10-07T04:25:24.219Z,15.90
2018-10-07T04:27:53.129Z,15.90
2018-10-07T04:30:21.979Z,15.90
2018-10-07T04:32:50.795Z,15.90
2018-10-07T04:35:19.596Z,15.90
2018-10-07T04:37:48.415Z,15.90
2018-10-07T04:40:17.199Z,15.80
2018-10-07T04:42:46.009Z,15.80
2018-10-07T04:45:14.850Z,15.60
2018-10-07T04:47:43.668Z,15.60
2018-10-07T04:50:12.523Z,15.70
2018-10-07T04:52:41.299Z,15.70
2018-10-07T04:55:10.091Z,15.70
2018-10-07T04:57:38.911Z,15.70
2018-10-07T05:00:07.825Z,15.70
2018-10-07T05:02:36.643Z,15.70
2018-10-07T05:05:05.520Z,15.70
2018-10-07T05:07:34.364Z,15.60
2018-10-07T05:10:24.280Z,15.60
2018-10-07T05:12:53.136Z,15.50
2018-10-07T05:15:22.078Z,15.60
2018-10-07T05:17:50.928Z,15.60
2018-10-07T05:20:19.756Z,15.60
2018-10-07T05:22:48.605Z,15.60
2018-10-07T05:25:17.421Z,15.60
2018-10-07T05:27:46.294Z,15.50
2018-10-07T05:30:15.104Z,15.50
2018-10-07T05:32:43.889Z,15.40
2018-10-07T05:35:12.696Z,15.40
2018-10-07T05:37:41.483Z,15.50
2018-10-07T05:40:10.270Z,15.40
2018-10-07T05:42:39.055Z,15.50
2018-10-07T05:45:08.232Z,15.50
2018-10-07T05:47:37.078Z,15.50
2018-10-07T05:50:06.062Z,15.40
2018-10-07T05:52:35.075Z,15.50
2018-10-07T05:55:04.124Z,15.50
2018-10-07T05:57:32.959Z,15.50
2018-10-07T06:00:01.889Z,15.50
2018-10-07T06:02:30.837Z,15.50
2018-10-07T06:05:00.458Z,15.60
2018-10-07T06:07:29.656Z,15.60
2018-10-07T06:09:58.504Z,15.50
2018-10-07T06:12:27.444Z,15.50
2018-10-07T06:15:07.306Z,15.40
2018-10-07T06:17:36.163Z,15.40
2018-10-07T06:20:05.042Z,15.50
2018-10-07T06:22:33.856Z,15.50
2018-10-07T06:25:02.706Z,15.40
2018-10-07T06:27:31.563Z,15.50
2018-10-07T06:30:00.445Z,15.50
2018-10-07T06:32:29.255Z,15.50
2018-10-07T06:34:58.083Z,15.60
2018-10-07T06:37:26.905Z,15.60
2018-10-07T06:39:55.715Z,15.60
2018-10-07T06:42:24.539Z,15.70
2018-10-07T06:44:53.452Z,15.70
2018-10-07T06:47:22.282Z,15.60
2018-10-07T06:49:51.126Z,15.60
2018-10-07T06:52:19.961Z,15.60
2018-10-07T06:54:48.819Z,15.60
2018-10-07T06:57:17.634Z,15.60
2018-10-07T06:59:46.502Z,15.70
2018-10-07T07:02:15.406Z,15.70
2018-10-07T07:04:44.223Z,15.70
2018-10-07T07:07:13.039Z,15.70
2018-10-07T07:09:41.843Z,15.60
2018-10-07T07:12:10.591Z,15.70
2018-10-07T07:14:39.369Z,15.70
2018-10-07T07:17:08.128Z,15.70
2018-10-07T07:19:37.013Z,15.70
2018-10-07T07:22:05.835Z,15.70
2018-10-07T07:24:34.674Z,15.60
2018-10-07T07:27:03.467Z,15.70
2018-10-07T07:29:32.234Z,15.70
2018-10-07T07:32:01.032Z,15.70
2018-10-07T07:34:29.851Z,15.60
2018-10-07T07:36:58.813Z,15.60
2018-10-07T07:39:27.765Z,15.60
2018-10-07T07:41:56.752Z,15.70
2018-10-07T07:44:25.531Z,15.60
2018-10-07T07:46:54.273Z,15.60
2018-10-07T07:49:23.099Z,15.60
2018-10-07T07:51:52.077Z,15.60
2018-10-07T07:54:21.048Z,15.60
2018-10-07T07:56:50.032Z,15.70
2018-10-07T07:59:18.823Z,15.70
2018-10-07T08:01:47.630Z,15.80
2018-10-07T08:04:16.396Z,15.80
2018-10-07T08:06:45.183Z,15.80
2018-10-07T08:09:13.949Z,15.70
2018-10-07T08:11:42.714Z,15.80
2018-10-07T08:14:11.515Z,15.80
2018-10-07T08:16:40.264Z,15.80
2018-10-07T08:19:09.042Z,15.80
2018-10-07T08:21:37.789Z,15.80
2018-10-07T08:24:06.545Z,15.90
2018-10-07T08:26:35.350Z,15.90
2018-10-07T08:29:04.082Z,15.90
2018-10-07T08:31:32.849Z,15.80
2018-10-07T08:34:01.600Z,15.80
2018-10-07T08:36:30.410Z,15.80
2018-10-07T08:38:59.229Z,15.90
2018-10-07T08:41:28.025Z,15.90
2018-10-07T08:43:56.833Z,15.90
2018-10-07T08:46:25.658Z,15.90
2018-10-07T08:48:54.463Z,15.90
2018-10-07T08:51:23.339Z,15.90
2018-10-07T08:53:52.695Z,15.90
2018-10-07T08:56:21.779Z,15.90
2018-10-07T08:58:50.881Z,15.90
2018-10-07T09:01:19.681Z,15.90
2018-10-07T09:03:48.736Z,16.00
2018-10-07T09:06:17.547Z,16.00
2018-10-07T09:08:47.397Z,16.00
2018-10-07T09:11:16.561Z,16.10
2018-10-07T09:13:45.769Z,16.10
2018-10-07T09:16:14.974Z,16.10
2018-10-07T09:18:43.887Z,16.10
2018-10-07T09:21:12.686Z,16.20
2018-10-07T09:23:42.061Z,16.20
2018-10-07T09:26:10.877Z,16.30
2018-10-07T09:28:40.226Z,16.30
2018-10-07T09:31:09.427Z,16.30
2018-10-07T09:33:38.283Z,16.30
2018-10-07T09:36:07.305Z,16.30
2018-10-07T09:38:36.092Z,16.40
2018-10-07T09:41:05.180Z,16.40
2018-10-07T09:43:34.273Z,16.50
2018-10-07T09:46:03.280Z,16.50
2018-10-07T09:48:32.583Z,16.50
2018-10-07T09:51:01.645Z,16.50
2018-10-07T09:53:30.636Z,16.60
2018-10-07T09:55:59.633Z,16.70
2018-10-07T09:58:28.871Z,16.70
2018-10-07T10:00:57.916Z,16.80
2018-10-07T10:03:27.120Z,16.80
2018-10-07T10:05:56.204Z,16.90
2018-10-07T10:08:25.331Z,16.90
2018-10-07T10:10:54.450Z,17.00
2018-10-07T10:13:23.688Z,17.10
2018-10-07T10:15:52.803Z,17.20
2018-10-07T10:18:32.671Z,17.30
2018-10-07T10:21:06.985Z,17.40
2018-10-07T10:23:50.975Z,17.50
2018-10-07T10:26:25.165Z,17.70
2018-10-07T10:29:02.574Z,17.70
2018-10-07T10:32:08.584Z,17.80
2018-10-07T10:35:52.919Z,17.80
2018-10-07T10:38:25.404Z,17.90
2018-10-07T10:41:02.602Z,18.00
2018-10-07T10:44:11.100Z,18.00
2018-10-07T10:47:18.775Z,18.20
2018-10-07T10:50:03.842Z,18.30
2018-10-07T10:52:37.549Z,18.50
2018-10-07T10:56:55.904Z,18.60
2018-10-07T10:59:35.680Z,18.60
2018-10-07T11:04:15.814Z,18.70
2018-10-07T11:06:56.535Z,18.70
2018-10-07T11:11:40.163Z,18.70
2018-10-07T11:14:32.680Z,18.70
2018-10-07T11:17:11.001Z,18.80
2018-10-07T11:19:46.737Z,18.80
2018-10-07T11:22:25.962Z,18.80
2018-10-07T11:27:19.343Z,18.90
2018-10-07T11:30:30.935Z,18.90
2018-10-07T11:33:38.225Z,19.10
2018-10-07T11:36:26.322Z,19.10
2018-10-07T11:39:07.674Z,19.10
2018-10-07T11:41:44.785Z,19.20
2018-10-07T11:45:20.193Z,19.30
2018-10-07T11:48:00.237Z,19.40
2018-10-07T11:50:33.949Z,19.60
2018-10-07T11:53:20.689Z,19.60
2018-10-07T11:55:49.705Z,19.70
2018-10-07T11:58:18.769Z,20.00
2018-10-07T12:00:47.842Z,20.10
2018-10-07T12:03:16.967Z,20.20
2018-10-07T12:05:46.141Z,20.30
2018-10-07T12:08:15.268Z,20.40
2018-10-07T12:10:44.482Z,20.50
2018-10-07T12:13:13.584Z,20.50
2018-10-07T12:15:42.815Z,20.50
2018-10-07T12:18:11.897Z,20.50
2018-10-07T12:20:40.751Z,20.50
2018-10-07T12:23:09.564Z,20.60
2018-10-07T12:25:38.886Z,20.70
2018-10-07T12:28:08.609Z,20.80
2018-10-07T12:30:37.843Z,20.90
2018-10-07T12:33:07.384Z,20.90
2018-10-07T12:35:36.334Z,21.00
2018-10-07T12:38:05.224Z,21.00
2018-10-07T12:40:34.097Z,21.00
2018-10-07T12:43:02.921Z,21.00
2018-10-07T12:45:31.812Z,20.90
2018-10-07T12:48:00.717Z,20.90
2018-10-07T12:50:29.544Z,20.80
2018-10-07T12:53:40.135Z,20.80
2018-10-07T12:56:08.972Z,20.70
2018-10-07T12:58:37.818Z,20.70
2018-10-07T13:01:07.430Z,20.70
2018-10-07T13:03:36.390Z,20.60
2018-10-07T13:06:05.290Z,20.60
2018-10-07T13:08:34.128Z,20.60
2018-10-07T13:11:03.125Z,20.60
2018-10-07T13:13:32.224Z,20.60
2018-10-07T13:16:01.345Z,20.60
2018-10-07T13:18:30.584Z,20.60
2018-10-07T13:20:59.407Z,20.70
2018-10-07T13:23:28.585Z,20.70
2018-10-07T13:25:57.757Z,20.70
2018-10-07T13:28:26.845Z,20.60
2018-10-07T13:30:55.929Z,20.60
2018-10-07T13:33:25.168Z,20.60
2018-10-07T13:35:54.358Z,20.50
2018-10-07T13:38:23.821Z,20.50
2018-10-07T13:40:52.931Z,20.50
2018-10-07T13:43:21.988Z,20.50
2018-10-07T13:45:51.113Z,20.50
2018-10-07T13:48:20.137Z,20.40
2018-10-07T13:50:49.047Z,20.40
2018-10-07T13:53:18.240Z,20.50
2018-10-07T13:55:47.287Z,20.50
2018-10-07T13:58:16.282Z,20.40
2018-10-07T14:00:45.600Z,20.40
2018-10-07T14:03:14.426Z,20.40
2018-10-07T14:05:43.229Z,20.40
2018-10-07T14:08:12.034Z,20.40
2018-10-07T14:10:41.016Z,20.40
2018-10-07T14:13:09.855Z,20.40
2018-10-07T14:15:38.897Z,20.30
2018-10-07T14:18:07.717Z,20.30
2018-10-07T14:20:36.792Z,20.30
2018-10-07T14:23:06.093Z,20.30
2018-10-07T14:25:35.230Z,20.30
2018-10-07T14:28:04.182Z,20.30
2018-10-07T14:30:32.971Z,20.30
2018-10-07T14:33:02.157Z,20.20
2018-10-07T14:35:31.276Z,20.20
2018-10-07T14:38:00.116Z,20.20
2018-10-07T14:40:29.164Z,20.20
2018-10-07T14:43:29.747Z,20.20
2018-10-07T14:45:58.598Z,20.30
2018-10-07T14:48:27.692Z,20.20
2018-10-07T14:50:56.894Z,20.30
2018-10-07T14:53:25.718Z,20.30
2018-10-07T14:55:54.554Z,20.20
2018-10-07T14:58:23.367Z,20.20
2018-10-07T15:00:52.168Z,20.20
2018-10-07T15:03:20.967Z,20.20
2018-10-07T15:05:49.793Z,20.20
2018-10-07T15:08:19.045Z,20.20
2018-10-07T15:10:47.989Z,20.20
2018-10-07T15:13:17.102Z,20.20
2018-10-07T15:15:45.980Z,20.20
2018-10-07T15:18:15.040Z,20.20
2018-10-07T15:20:44.173Z,20.00
2018-10-07T15:23:13.352Z,20.00
2018-10-07T15:25:42.438Z,20.00
2018-10-07T15:28:11.248Z,20.10
2018-10-07T15:30:40.221Z,20.10
2018-10-07T15:33:09.400Z,20.10
2018-10-07T15:35:38.599Z,20.10
2018-10-07T15:38:07.412Z,20.10
2018-10-07T15:40:36.714Z,20.10
2018-10-07T15:43:05.927Z,20.10
2018-10-07T15:45:34.850Z,20.10
2018-10-07T15:48:04.224Z,20.00
2018-10-07T15:50:33.105Z,20.00
2018-10-07T15:53:02.167Z,20.00
2018-10-07T15:55:30.971Z,20.00
2018-10-07T15:57:59.860Z,20.00
2018-10-07T16:00:28.817Z,20.00
2018-10-07T16:02:58.070Z,20.00
2018-10-07T16:05:27.016Z,19.90
2018-10-07T16:07:55.902Z,19.90
2018-10-07T16:10:25.154Z,19.90
2018-10-07T16:12:54.021Z,19.90
2018-10-07T16:15:23.130Z,19.90
2018-10-07T16:17:52.342Z,19.80
2018-10-07T16:20:21.181Z,19.80
2018-10-07T16:22:50.399Z,19.80
2018-10-07T16:25:19.275Z,19.80
2018-10-07T16:27:48.068Z,19.80
2018-10-07T16:31:08.825Z,19.80
2018-10-07T16:33:37.805Z,19.80
2018-10-07T16:36:06.899Z,19.60
2018-10-07T16:38:35.954Z,19.60
2018-10-07T16:41:05.041Z,19.60
2018-10-07T16:43:33.853Z,19.50
2018-10-07T16:46:02.868Z,19.60
2018-10-07T16:48:31.738Z,19.60
2018-10-07T16:51:00.616Z,19.50
2018-10-07T16:53:29.429Z,19.50
2018-10-07T16:55:58.290Z,19.50
2018-10-07T16:58:27.089Z,19.50
2018-10-07T17:00:55.975Z,19.40
2018-10-07T17:03:24.769Z,19.40
2018-10-07T17:05:53.549Z,19.40
2018-10-07T17:08:22.322Z,19.40
2018-10-07T17:10:51.167Z,19.40
2018-10-07T17:13:20.112Z,19.40
2018-10-07T17:15:48.956Z,19.40
2018-10-07T17:18:17.752Z,19.40
2018-10-07T17:20:46.572Z,19.40
2018-10-07T17:23:15.427Z,19.30
2018-10-07T17:25:44.291Z,19.30
2018-10-07T17:28:13.142Z,19.30
2018-10-07T17:30:41.977Z,19.20
2018-10-07T17:33:10.813Z,19.20
2018-10-07T17:35:39.709Z,19.10
2018-10-07T17:38:08.627Z,19.10
2018-10-07T17:40:37.894Z,19.20
2018-10-07T17:43:06.704Z,19.20
2018-10-07T17:45:35.910Z,19.10
2018-10-07T17:48:04.791Z,19.10
2018-10-07T17:50:33.959Z,19.10
2018-10-07T17:53:02.828Z,19.10
2018-10-07T17:55:31.946Z,19.00
2018-10-07T17:58:00.978Z,19.00
2018-10-07T18:00:30.053Z,19.00
2018-10-07T18:02:59.255Z,19.00
2018-10-07T18:05:27.930Z,19.00
2018-10-07T18:07:56.932Z,19.00
2018-10-07T18:10:25.919Z,18.90
2018-10-07T18:12:54.764Z,18.90
2018-10-07T18:15:23.771Z,18.90
2018-10-07T18:17:52.674Z,18.90
2018-10-07T18:20:21.899Z,18.90
2018-10-07T18:22:51.088Z,18.90
2018-10-07T18:25:19.885Z,18.90
2018-10-07T18:27:48.980Z,18.90
2018-10-07T18:30:17.761Z,18.90
2018-10-07T18:32:46.723Z,18.90
2018-10-07T18:35:15.763Z,18.90
2018-10-07T18:37:44.732Z,18.90
2018-10-07T18:40:13.811Z,18.80
2018-10-07T18:42:43.021Z,18.70
2018-10-07T18:45:11.846Z,18.70
2018-10-07T18:48:19.011Z,18.50
2018-10-07T18:50:47.806Z,18.60
2018-10-07T18:53:16.840Z,18.70
2018-10-07T18:55:45.631Z,18.70
2018-10-07T18:58:14.739Z,18.70
2018-10-07T19:00:43.692Z,18.60
2018-10-07T19:03:12.517Z,18.70
2018-10-07T19:05:41.334Z,18.50
2018-10-07T19:08:10.117Z,18.20
2018-10-07T19:10:38.957Z,18.20
2018-10-07T19:13:07.780Z,18.20
2018-10-07T19:15:36.639Z,18.20
2018-10-07T19:18:05.578Z,18.20
2018-10-07T19:20:34.504Z,18.30
2018-10-07T19:23:03.356Z,18.40
2018-10-07T19:25:32.176Z,18.40
2018-10-07T19:28:01.043Z,18.40
2018-10-07T19:30:29.903Z,18.40
2018-10-07T19:32:58.917Z,18.40
2018-10-07T19:35:28.020Z,18.40
2018-10-07T19:37:57.163Z,18.40
2018-10-07T19:40:26.203Z,18.40
2018-10-07T19:42:55.350Z,18.30
2018-10-07T19:45:24.432Z,18.20
2018-10-07T19:47:53.482Z,18.30
2018-10-07T19:50:22.584Z,18.30
2018-10-07T19:52:51.781Z,18.30
2018-10-07T19:55:20.683Z,18.30
2018-10-07T19:57:49.708Z,18.30
2018-10-07T20:00:19.400Z,18.30
2018-10-07T20:02:48.192Z,18.20
2018-10-07T20:05:17.363Z,18.30
2018-10-07T20:07:46.377Z,18.20
2018-10-07T20:10:15.671Z,18.10
2018-10-07T20:12:44.731Z,18.10
2018-10-07T20:15:13.614Z,18.10
2018-10-07T20:17:42.732Z,18.00
2018-10-07T20:20:12.004Z,18.00
2018-10-07T20:22:41.112Z,17.90
2018-10-07T20:25:10.205Z,17.90
2018-10-07T20:27:39.422Z,17.90
2018-10-07T20:30:08.510Z,17.90
2018-10-07T20:32:37.516Z,17.90
2018-10-07T20:35:06.596Z,17.90
2018-10-07T20:37:35.695Z,17.90
2018-10-07T20:40:04.969Z,17.90
2018-10-07T20:42:33.984Z,17.90
2018-10-07T20:45:03.299Z,18.00
2018-10-07T20:47:32.477Z,17.90
2018-10-07T20:50:01.572Z,17.80
2018-10-07T20:52:30.803Z,17.80
2018-10-07T20:54:59.859Z,17.80
2018-10-07T20:57:28.986Z,17.80
2018-10-07T20:59:58.156Z,17.80
2018-10-07T21:02:27.362Z,17.70
2018-10-07T21:04:56.402Z,17.70
2018-10-07T21:07:25.514Z,17.60
2018-10-07T21:09:54.655Z,17.50
2018-10-07T21:12:23.726Z,17.50
2018-10-07T21:14:52.804Z,17.60
2018-10-07T21:17:21.805Z,17.60
2018-10-07T21:19:50.993Z,17.60
2018-10-07T21:22:20.048Z,17.70
2018-10-07T21:24:49.160Z,17.70
2018-10-07T21:27:18.049Z,17.70
2018-10-07T21:29:47.091Z,17.70
2018-10-07T21:32:16.089Z,17.70
2018-10-07T21:34:45.119Z,17.70
2018-10-07T21:37:14.164Z,17.60
2018-10-07T21:39:43.217Z,17.50
2018-10-07T21:42:12.266Z,17.60
2018-10-07T21:44:41.060Z,17.60
2018-10-07T21:47:10.127Z,17.60
2018-10-07T21:49:38.922Z,17.60
2018-10-07T21:52:08.046Z,17.50
2018-10-07T21:54:37.104Z,17.40
2018-10-07T21:57:06.296Z,17.40
2018-10-07T21:59:35.401Z,17.30
2018-10-07T22:02:04.592Z,17.30
2018-10-07T22:04:34.139Z,17.40
2018-10-07T22:07:03.087Z,17.40
2018-10-07T22:09:31.860Z,17.40
2018-10-07T22:12:00.872Z,17.40
2018-10-07T22:14:30.073Z,17.50
2018-10-07T22:16:59.201Z,17.40
2018-10-07T22:19:28.151Z,17.40
2018-10-07T22:21:57.247Z,17.50
2018-10-07T22:24:26.439Z,17.50
2018-10-07T22:26:55.544Z,17.40
2018-10-07T22:29:24.688Z,17.50
2018-10-07T22:31:53.740Z,17.50
2018-10-07T22:34:22.954Z,17.50
2018-10-07T22:36:52.035Z,17.50
2018-10-07T22:39:21.117Z,17.50
2018-10-07T22:41:50.250Z,17.50
2018-10-07T22:44:19.195Z,17.50
2018-10-07T22:46:48.280Z,17.50
2018-10-07T22:49:17.273Z,17.50
2018-10-07T22:51:46.483Z,17.50
2018-10-07T22:54:15.632Z,17.50
2018-10-07T22:56:44.660Z,17.40
2018-10-07T22:59:13.880Z,17.40
2018-10-07T23:01:42.964Z,17.40
2018-10-07T23:04:12.098Z,17.40
2018-10-07T23:06:41.292Z,17.40
2018-10-07T23:09:11.632Z,17.40
2018-10-07T23:11:40.990Z,17.30
2018-10-07T23:14:10.184Z,17.30
2018-10-07T23:16:39.272Z,17.30
2018-10-07T23:19:08.435Z,17.30
2018-10-07T23:21:37.562Z,17.40
2018-10-07T23:24:06.753Z,17.30
2018-10-07T23:26:35.875Z,17.30
2018-10-07T23:29:05.044Z,17.40
2018-10-07T23:31:34.102Z,17.30
2018-10-07T23:34:03.120Z,17.30
2018-10-07T23:36:32.162Z,17.30
2018-10-07T23:39:01.138Z,17.30
2018-10-07T23:41:30.286Z,17.20
2018-10-07T23:43:59.456Z,17.10
2018-10-07T23:46:28.531Z,17.10
2018-10-07T23:48:57.517Z,17.10
2018-10-07T23:51:26.597Z,17.10
2018-10-07T23:53:55.619Z,17.20
2018-10-07T23:56:24.592Z,17.20
2018-10-07T23:58:53.593Z,17.20
